• Join FlightAware (Why Join?)
  • Login
  • US Flag 
07:14AM EDT


 

Airport Tracker/Info


-or-


 

Live Flight TrackerFlight Track Log ✈ JAL309 ✈ 06-May-2013 ✈ RJTT / HND - RJFF / FUK

Flight Track Log - Related Links

Times and Time Zones

All times are in EDT time to prevent confusion due to time zone crossing. See the JAL309 flight status page for this flight to view local times or setup timezone preferences in your user account.

Time Position Orientation Groundspeed Altitude Reporting Facility
EDT Latitude Longitude Course Direction KTS MPH feet Rate Location/Type
08:43PM 35.4867 139.3934 258° West  Level Estimated
08:44PM 35.4645 139.2648 258° West  Level Estimated
08:45PM 35.4423 139.1362 258° West  Level Estimated
08:46PM 35.4199 139.0077 258° West  Level Estimated
08:47PM 35.3973 138.8793 258° West  Level Estimated
08:48PM 35.3764 138.7606 258° West  Level Estimated
08:49PM 35.3553 138.6419 258° West  Level Estimated
08:50PM 35.3340 138.5233 258° West  Level Estimated
08:51PM 35.3127 138.4048 258° West  Level Estimated
08:52PM 35.2913 138.2863 258° West  Level Estimated
08:53PM 35.2697 138.1679 257° West  Level Estimated
08:54PM 35.2481 138.0495 257° West  Level Estimated
08:55PM 35.2263 137.9313 257° West  Level Estimated
08:56PM 35.2044 137.8130 257° West  Level Estimated
08:57PM 35.1824 137.6949 257° West  Level Estimated
08:58PM 35.1603 137.5768 257° West  Level Estimated
08:59PM 35.1380 137.4588 257° West  Level Estimated
09:00PM 35.1157 137.3408 257° West  Level Estimated
09:01PM 35.0932 137.2229 257° West  Level Estimated
09:02PM 35.0706 137.1051 257° West  Level Estimated
09:03PM 35.0479 136.9873 257° West  Level Estimated
09:04PM 35.0236 136.8618 257° West  Level Estimated
09:05PM 34.9991 136.7363 257° West  Level Estimated
09:06PM 34.9745 136.6109 257° West  Level Estimated
09:07PM 34.9498 136.4856 257° West  Level Estimated
09:08PM 34.9249 136.3603 256° West  Level Estimated
09:09PM 34.8999 136.2352 256° West  Level Estimated
09:10PM 34.8748 136.1101 256° West  Level Estimated
09:11PM 34.8496 135.9850 256° West  Level Estimated
09:12PM 34.8242 135.8601 256° West  Level Estimated
09:13PM 34.7987 135.7352 256° West  Level Estimated
09:14PM 34.7731 135.6105 256° West  Level Estimated
09:15PM 34.7474 135.4858 256° West  Level Estimated
09:16PM 34.7215 135.3611 256° West  Level Estimated
09:17PM 34.6955 135.2366 256° West  Level Estimated
09:18PM 34.6694 135.1121 256° West  Level Estimated
09:19PM 34.6431 134.9877 256° West  Level Estimated
09:20PM 34.6167 134.8634 256° West  Level Estimated
09:21PM 34.5902 134.7392 256° West  Level Estimated
09:22PM 34.5636 134.6150 255° West  Level Estimated
09:23PM 34.5368 134.4909 255° West  Level Estimated
09:24PM 34.5099 134.3669 255° West  Level Estimated
09:25PM 34.4829 134.2430 255° West  Level Estimated
09:26PM 34.4558 134.1192 255° West  Level Estimated
09:27PM 34.4286 133.9954 255° West  Level Estimated
09:28PM 34.4012 133.8718 255° West  Level Estimated
09:29PM 34.3737 133.7482 255° West  Level Estimated
09:30PM 34.3456 133.6230 255° West  Level Estimated
09:31PM 34.3175 133.4979 255° West  Level Estimated
09:32PM 34.2893 133.3729 255° West  Level Estimated
09:33PM 34.2609 133.2480 255° West  Level Estimated
09:34PM 34.2324 133.1231 255° West  Level Estimated
09:35PM 34.2037 132.9984 255° West  Level Estimated
09:36PM 34.1749 132.8737 254° West  Level Estimated
09:37PM 34.1461 132.7491 254° West  Level Estimated
09:38PM 34.1170 132.6246 254° West  Level Estimated
09:39PM 34.0879 132.5002 254° West  Level Estimated
09:40PM 34.0586 132.3759 254° West  Level Estimated
09:41PM 34.0292 132.2516 254° West  Level Estimated
09:42PM 33.9997 132.1274 254° West  Level Estimated
09:43PM 33.9701 132.0034 254° West  Level Estimated
09:44PM 33.9403 131.8794 254° West  Level Estimated
09:45PM 33.9104 131.7555 254° West  Level Estimated
09:46PM 33.8804 131.6317 254° West  Level Estimated
09:47PM 33.8503 131.5079 254° West  Level Estimated
09:48PM 33.8200 131.3843 254° West  Level Estimated
09:49PM 33.7896 131.2608 254° West  Level Estimated
09:50PM 33.7591 131.1373 253° West  Level Estimated
09:51PM 33.7289 131.0156 253° West  Level Estimated
09:52PM 33.6985 130.8939 253° West  Level Estimated
09:53PM 33.6681 130.7724 253° West  Level Estimated
09:54PM 33.6375 130.6509 253° West  Level Estimated
09:55PM 33.6068 130.5295 253° West  Level Estimated
09:56PM 33.5866 130.4502 253° West  Level Estimated
09:57PM 33.5866 130.4502 248° West  Level Estimated
09:58PM 33.5866 130.4502 248° West  Level Estimated
09:59PM 33.5866 130.4502 248° West  Level Estimated
10:00PM 33.5866 130.4502 248° West  Level Estimated
10:01PM 33.5866 130.4502 248° West  Level Estimated
10:02PM 33.5866 130.4502 248° West  Level Estimated
10:03PM 33.5866 130.4502 248° West  Level Estimated
10:04PM 33.5866 130.4502 248° West  Level Estimated